Time;durP1;ratioP1;P1;durP2;ratioP2;P2;SDS_P1;SDS_P2;PMS_P1;PMS_P2;Temp;Humidity;BMP_temperature;BMP_pressure;BME280_temperature;BME280_humidity;BME280_pressure;Samples;Min_cycle;Max_cycle;Signal;HPM_P1;HPM_P2
2022/06/21 00:02:01;;;;;;;8.98;3.13;;;15.40;99.90;;;;;;4957105;29;20200;-80
2022/06/21 00:04:26;;;;;;;18.85;3.60;;;15.40;99.90;;;;;;4956908;28;20170;-78
2022/06/21 00:06:52;;;;;;;9.77;3.80;;;15.40;99.90;;;;;;4956825;28;20174;-79
2022/06/21 00:09:18;;;;;;;4.75;3.47;;;15.50;99.90;;;;;;4956945;28;20198;-79
2022/06/21 00:11:43;;;;;;;10.13;3.58;;;15.40;99.90;;;;;;4971767;28;20531;-77
2022/06/21 00:14:09;;;;;;;11.55;3.63;;;15.50;99.90;;;;;;4956924;29;20174;-80
2022/06/21 00:16:36;;;;;;;3.38;3.08;;;15.40;99.90;;;;;;4956982;28;20199;-78
2022/06/21 00:19:02;;;;;;;8.13;3.78;;;15.40;99.90;;;;;;4971998;28;20281;-80
2022/06/21 00:21:35;;;;;;;6.43;3.65;;;15.30;99.90;;;;;;4956948;28;20238;-78
2022/06/21 00:24:01;;;;;;;9.35;3.03;;;15.30;99.90;;;;;;4971857;28;20259;-78
2022/06/21 00:26:28;;;;;;;6.00;3.97;;;15.30;99.90;;;;;;4971725;28;20261;-78
2022/06/21 00:28:56;;;;;;;9.27;3.78;;;15.30;99.90;;;;;;4956546;28;20611;-80
2022/06/21 00:31:23;;;;;;;12.45;4.28;;;15.10;99.90;;;;;;4956936;29;20182;-77
2022/06/21 00:33:49;;;;;;;6.55;4.40;;;14.90;99.90;;;;;;4956774;29;20262;-78
2022/06/21 00:36:23;;;;;;;9.70;4.10;;;15.00;99.90;;;;;;4956600;28;20178;-78
2022/06/21 00:38:50;;;;;;;7.78;3.88;;;14.80;99.90;;;;;;4956734;28;20185;-79
2022/06/21 00:41:18;;;;;;;20.65;4.70;;;14.90;99.90;;;;;;4956548;29;20185;-78
2022/06/21 00:43:48;;;;;;;5.40;4.38;;;15.10;99.90;;;;;;4956593;29;20199;-78
2022/06/21 00:46:38;;;;;;;6.15;4.55;;;15.10;99.90;;;;;;4955319;28;20194;-78
2022/06/21 00:49:11;;;;;;;6.78;3.63;;;15.00;99.90;;;;;;4954885;28;20333;-78
2022/06/21 00:51:42;;;;;;;13.02;4.38;;;15.10;99.90;;;;;;4956296;28;20174;-78
2022/06/21 00:54:25;;;;;;;17.60;4.65;;;14.90;99.90;;;;;;4956384;28;20222;-78
2022/06/21 00:57:01;;;;;;;11.35;3.78;;;14.80;99.90;;;;;;4970791;28;20174;-77
2022/06/21 00:59:32;;;;;;;8.30;3.70;;;14.80;99.90;;;;;;4955908;28;20643;-78
2022/06/21 01:02:02;;;;;;;11.70;4.00;;;14.70;99.90;;;;;;4956215;28;20170;-78
2022/06/21 01:04:45;;;;;;;7.32;4.50;;;14.80;99.90;;;;;;4956100;28;20265;-78
2022/06/21 01:07:11;;;;;;;7.95;3.88;;;14.80;99.90;;;;;;4954831;28;20586;-78
2022/06/21 01:10:00;;;;;;;11.45;3.95;;;14.80;99.90;;;;;;4954693;28;20210;-78
2022/06/21 01:12:36;;;;;;;8.82;3.92;;;14.90;99.90;;;;;;4959624;28;20174;-78
2022/06/21 01:15:07;;;;;;;11.02;3.97;;;15.20;99.90;;;;;;4966932;28;20158;-78
2022/06/21 01:17:34;;;;;;;15.77;4.93;;;15.20;99.90;;;;;;4980717;28;20183;-78
2022/06/21 01:20:09;;;;;;;8.98;4.40;;;15.10;99.90;;;;;;4962609;28;20167;-78
2022/06/21 01:22:50;;;;;;;11.75;3.92;;;14.90;99.90;;;;;;4970613;28;20232;-79
2022/06/21 01:25:54;;;;;;;9.05;3.95;;;14.80;99.90;;;;;;4970406;28;20554;-79
2022/06/21 01:28:20;;;;;;;6.90;4.05;;;14.80;99.90;;;;;;4955622;28;20281;-78
2022/06/21 01:30:54;;;;;;;13.27;4.90;;;14.80;99.90;;;;;;4954321;28;20297;-77
2022/06/21 01:33:33;;;;;;;10.68;4.43;;;15.10;99.90;;;;;;4955835;28;20162;-79
2022/06/21 01:36:03;;;;;;;14.60;4.28;;;15.20;99.90;;;;;;4955724;29;20171;-78
2022/06/21 01:38:55;;;;;;;8.18;4.40;;;14.80;99.90;;;;;;4955319;28;20927;-80
2022/06/21 01:41:38;;;;;;;10.27;4.90;;;14.70;99.90;;;;;;4953450;28;20555;-79
2022/06/21 01:44:09;;;;;;;12.02;4.25;;;14.60;99.90;;;;;;4955742;29;20179;-78
2022/06/21 01:46:35;;;;;;;10.98;4.15;;;14.70;99.90;;;;;;4955506;28;20205;-78
2022/06/21 01:49:12;;;;;;;8.82;4.40;;;14.60;99.90;;;;;;4955390;29;20230;-78
2022/06/21 01:51:45;;;;;;;16.70;5.10;;;14.50;99.90;;;;;;4970171;28;20173;-78
2022/06/21 01:54:15;;;;;;;9.20;5.15;;;14.40;99.90;;;;;;4955169;28;20258;-80
2022/06/21 01:56:41;;;;;;;11.50;5.20;;;14.50;99.90;;;;;;4955048;28;20225;-79
2022/06/21 01:59:14;;;;;;;10.13;4.60;;;14.50;99.90;;;;;;4954618;28;20261;-78
2022/06/21 02:01:51;;;;;;;13.05;5.03;;;14.30;99.90;;;;;;4959141;28;20222;-80
2022/06/21 02:04:21;;;;;;;9.88;4.70;;;14.30;99.90;;;;;;4961116;28;20685;-80
2022/06/21 02:06:48;;;;;;;11.05;5.53;;;14.40;99.90;;;;;;4962387;29;20182;-79
2022/06/21 02:09:59;;;;;;;12.80;5.10;;;14.40;99.90;;;;;;4960762;28;20210;-79
2022/06/21 02:12:34;;;;;;;15.35;5.82;;;14.30;99.90;;;;;;4975196;28;20746;-79
2022/06/21 02:15:06;;;;;;;14.63;6.45;;;14.20;99.90;;;;;;4960186;28;20174;-79
2022/06/21 02:17:41;;;;;;;8.65;5.18;;;14.10;99.90;;;;;;4964653;29;20565;-78
2022/06/21 02:20:33;;;;;;;14.23;6.30;;;14.00;99.90;;;;;;4966724;28;20170;-80
2022/06/21 02:23:13;;;;;;;20.50;6.20;;;13.90;99.90;;;;;;4959959;28;20210;-78
2022/06/21 02:25:41;;;;;;;12.23;6.50;;;13.90;99.90;;;;;;4961158;28;20166;-79
2022/06/21 02:28:11;;;;;;;19.92;7.22;;;14.00;99.90;;;;;;4973473;28;20202;-78
2022/06/21 02:30:37;;;;;;;7.38;5.70;;;13.90;99.90;;;;;;4958167;28;20233;-81
2022/06/21 02:33:06;;;;;;;10.20;6.00;;;14.00;99.90;;;;;;4974409;28;20202;-80
2022/06/21 02:35:44;;;;;;;7.80;5.55;;;14.00;99.90;;;;;;4959168;28;20171;-80
2022/06/21 02:38:39;;;;;;;11.20;6.05;;;13.90;99.90;;;;;;4959576;28;20198;-82
2022/06/21 02:41:17;;;;;;;10.38;5.35;;;13.90;99.90;;;;;;4961170;29;20177;-81
2022/06/21 02:43:53;;;;;;;9.85;5.93;;;13.80;99.90;;;;;;4962348;29;20158;-82
2022/06/21 02:46:42;;;;;;;13.70;5.55;;;13.90;99.90;;;;;;4978158;28;20306;-80
2022/06/21 02:49:12;;;;;;;6.50;5.65;;;13.90;99.90;;;;;;4961874;28;20206;-79
2022/06/21 02:51:59;;;;;;;15.45;6.93;;;13.90;99.90;;;;;;4975353;28;20202;-82
2022/06/21 02:54:29;;;;;;;13.75;5.80;;;13.90;99.90;;;;;;4958909;29;20166;-79
2022/06/21 02:57:05;;;;;;;21.58;7.13;;;13.90;99.90;;;;;;4958381;28;20670;-80
2022/06/21 02:59:34;;;;;;;17.25;6.85;;;14.00;99.90;;;;;;4972228;28;20233;-80
2022/06/21 03:02:07;;;;;;;14.63;6.32;;;13.90;99.90;;;;;;4976770;28;20207;-80
2022/06/21 03:04:38;;;;;;;11.80;6.78;;;13.90;99.90;;;;;;4976754;28;20171;-80
2022/06/21 03:07:05;;;;;;;7.47;6.72;;;13.80;99.90;;;;;;4976899;28;20283;-79
2022/06/21 03:09:33;;;;;;;14.90;7.15;;;13.70;99.90;;;;;;4977365;28;20201;-80
2022/06/21 03:12:03;;;;;;;13.10;6.93;;;13.70;99.90;;;;;;4979218;28;20227;-80
2022/06/21 03:14:31;;;;;;;11.00;6.80;;;13.60;99.90;;;;;;4976133;28;20171;-81
2022/06/21 03:17:01;;;;;;;14.07;7.03;;;13.50;99.90;;;;;;4962297;28;20201;-80
2022/06/21 03:19:47;;;;;;;13.18;7.10;;;13.40;99.90;;;;;;4963668;28;20155;-80
2022/06/21 03:22:34;;;;;;;11.80;7.45;;;13.30;99.90;;;;;;4960765;28;20253;-79
2022/06/21 03:25:05;;;;;;;12.50;6.43;;;13.30;99.90;;;;;;4975085;28;20517;-79
2022/06/21 03:27:47;;;;;;;20.15;8.02;;;13.50;99.90;;;;;;4959528;28;20197;-80
2022/06/21 03:30:14;;;;;;;22.48;8.95;;;13.60;99.90;;;;;;4975306;28;20234;-80
2022/06/21 03:32:42;;;;;;;15.95;8.02;;;13.60;99.90;;;;;;4943107;28;20266;-80
2022/06/21 03:35:07;;;;;;;11.35;7.75;;;13.60;99.90;;;;;;4960203;28;20197;-79
2022/06/21 03:37:39;;;;;;;16.80;7.80;;;13.50;99.90;;;;;;4959988;28;20186;-80
2022/06/21 03:42:53;;;;;;;15.95;8.38;;;13.40;99.90;;;;;;4959073;29;20536;-80
2022/06/21 03:45:24;;;;;;;21.45;8.48;;;13.40;99.90;;;;;;4959349;28;20254;-80
2022/06/21 03:47:59;;;;;;;18.20;7.97;;;13.30;99.90;;;;;;4978983;28;20198;-79
2022/06/21 03:50:34;;;;;;;11.90;8.43;;;13.40;99.90;;;;;;4966040;29;20222;-79
2022/06/21 03:53:06;;;;;;;15.35;8.07;;;13.60;99.90;;;;;;4980290;28;20154;-80
2022/06/21 03:55:37;;;;;;;20.65;8.30;;;13.60;99.90;;;;;;4959730;28;20182;-79
2022/06/21 03:58:10;;;;;;;14.25;8.98;;;13.70;99.90;;;;;;4957479;29;20280;-80
2022/06/21 04:00:44;;;;;;;21.67;8.00;;;13.80;99.90;;;;;;4957928;28;20178;-79
2022/06/21 04:03:27;;;;;;;11.63;7.60;;;13.90;99.90;;;;;;4955817;28;20170;-79
2022/06/21 04:06:02;;;;;;;20.13;7.10;;;14.20;99.90;;;;;;4957120;28;20759;-79
2022/06/21 04:08:45;;;;;;;8.85;5.75;;;14.70;99.90;;;;;;4956661;28;20178;-80
2022/06/21 04:11:27;;;;;;;22.83;7.07;;;15.10;99.90;;;;;;4957037;29;20610;-80
2022/06/21 04:14:13;;;;;;;15.32;5.55;;;15.60;99.90;;;;;;4956987;28;20265;-80
2022/06/21 04:16:58;;;;;;;12.75;5.63;;;16.20;99.90;;;;;;4956615;29;20178;-80
2022/06/21 04:19:38;;;;;;;11.30;6.05;;;16.30;99.90;;;;;;4957063;28;20182;-81
2022/06/21 04:22:34;;;;;;;15.32;7.07;;;16.50;99.90;;;;;;4956831;28;20185;-80
2022/06/21 04:25:10;;;;;;;16.70;6.43;;;16.50;99.90;;;;;;4956791;28;20163;-80
2022/06/21 04:28:04;;;;;;;12.63;6.07;;;16.60;99.90;;;;;;4956419;28;20650;-79
2022/06/21 04:30:40;;;;;;;16.10;6.25;;;16.40;99.90;;;;;;4955734;28;20616;-80
2022/06/21 04:33:20;;;;;;;27.27;6.90;;;16.20;99.90;;;;;;4956755;28;20166;-80
2022/06/21 04:36:00;;;;;;;9.32;5.78;;;16.00;99.90;;;;;;4955197;28;20171;-79
2022/06/21 04:38:35;;;;;;;15.63;6.47;;;15.90;99.90;;;;;;4956307;28;20182;-79
2022/06/21 04:41:39;;;;;;;19.23;6.72;;;15.70;99.90;;;;;;4956118;28;20641;-80
2022/06/21 04:44:15;;;;;;;14.45;5.57;;;15.70;99.90;;;;;;4970865;28;20178;-80
2022/06/21 04:47:11;;;;;;;11.07;5.65;;;16.00;99.90;;;;;;4956739;28;20630;-81
2022/06/21 04:49:49;;;;;;;11.38;6.40;;;15.80;99.90;;;;;;4956203;28;20230;-79
2022/06/21 04:52:24;;;;;;;14.35;6.80;;;15.60;99.90;;;;;;4970984;28;20197;-80
2022/06/21 04:54:49;;;;;;;12.48;5.93;;;15.60;99.90;;;;;;4956208;28;20528;-81
2022/06/21 04:57:17;;;;;;;14.07;5.68;;;15.50;99.90;;;;;;4955923;28;20193;-79
2022/06/21 04:59:44;;;;;;;13.50;6.15;;;15.40;99.90;;;;;;4971059;28;20635;-79
2022/06/21 05:02:21;;;;;;;12.38;6.40;;;15.40;99.90;;;;;;4954899;29;20190;-80
2022/06/21 05:04:50;;;;;;;14.20;6.07;;;15.50;99.90;;;;;;4955059;28;20181;-80
2022/06/21 05:07:20;;;;;;;11.50;5.57;;;15.60;99.90;;;;;;4955993;29;20245;-80
2022/06/21 05:09:47;;;;;;;15.23;6.53;;;15.50;99.90;;;;;;4955817;28;21087;-80
2022/06/21 05:12:33;;;;;;;17.02;6.47;;;15.40;99.90;;;;;;4955918;28;20202;-80
2022/06/21 05:15:04;;;;;;;27.63;7.30;;;15.60;99.90;;;;;;4955484;28;20187;-80
2022/06/21 05:17:33;;;;;;;14.88;6.50;;;15.60;99.90;;;;;;4970685;28;20218;-80
2022/06/21 05:20:04;;;;;;;11.80;6.88;;;15.80;99.90;;;;;;4955989;29;20229;-80
2022/06/21 05:22:38;;;;;;;20.13;6.35;;;15.80;99.90;;;;;;4955817;28;20655;-80
2022/06/21 05:25:15;;;;;;;12.25;6.70;;;15.90;99.90;;;;;;4954738;28;20333;-80
2022/06/21 05:27:49;;;;;;;21.20;6.45;;;16.00;99.90;;;;;;4955480;28;20186;-80
2022/06/21 05:30:39;;;;;;;12.45;5.75;;;16.00;99.90;;;;;;4970194;28;20667;-79
2022/06/21 05:33:22;;;;;;;11.32;5.28;;;15.90;99.90;;;;;;4955652;28;20748;-79
2022/06/21 05:35:49;;;;;;;16.50;5.28;;;15.70;99.90;;;;;;4970309;28;20167;-80
2022/06/21 05:38:24;;;;;;;8.85;4.88;;;15.70;99.90;;;;;;4965587;28;20166;-78
2022/06/21 05:41:29;;;;;;;15.15;5.35;;;15.90;99.90;;;;;;4963179;28;20264;-79
2022/06/21 05:44:18;;;;;;;21.98;5.18;;;16.10;99.90;;;;;;4955722;28;20204;-79
2022/06/21 05:46:49;;;;;;;7.90;5.95;;;16.40;99.90;;;;;;4958155;28;20246;-79
2022/06/21 05:49:25;;;;;;;9.15;4.93;;;16.70;99.90;;;;;;4970124;28;20198;-79
2022/06/21 05:51:57;;;;;;;10.07;4.68;;;16.70;99.90;;;;;;4954011;28;20178;-79
2022/06/21 05:54:30;;;;;;;12.52;4.60;;;16.80;99.90;;;;;;4955388;29;20171;-79
2022/06/21 05:57:00;;;;;;;22.42;4.80;;;16.90;99.90;;;;;;4955172;29;20162;-81
2022/06/21 05:59:25;;;;;;;6.40;4.55;;;16.70;99.90;;;;;;4953881;28;20170;-80
2022/06/21 06:02:01;;;;;;;11.23;4.07;;;16.80;99.90;;;;;;4955362;28;20167;-79
2022/06/21 06:04:58;;;;;;;9.85;4.35;;;16.60;99.90;;;;;;4970474;28;20173;-79
2022/06/21 06:07:39;;;;;;;10.55;3.45;;;16.70;99.90;;;;;;4964358;28;20265;-79
2022/06/21 06:10:06;;;;;;;5.18;3.72;;;17.10;99.90;;;;;;4969849;28;20729;-79
2022/06/21 06:12:36;;;;;;;9.43;4.25;;;17.20;99.90;;;;;;4954892;28;20173;-83
2022/06/21 06:15:07;;;;;;;9.77;4.55;;;17.40;99.90;;;;;;4954826;29;20266;-83
2022/06/21 06:17:44;;;;;;;21.65;5.55;;;17.30;99.90;;;;;;4954529;28;20671;-79
2022/06/21 06:20:24;;;;;;;12.88;4.65;;;17.30;99.90;;;;;;4957366;28;20182;-80
2022/06/21 06:22:55;;;;;;;17.88;4.70;;;17.50;99.90;;;;;;4963730;29;20166;-80
2022/06/21 06:25:42;;;;;;;10.23;3.97;;;17.70;99.90;;;;;;4978197;28;20151;-80
2022/06/21 06:28:24;;;;;;;13.07;3.65;;;18.00;99.90;;;;;;4963341;28;20582;-78
2022/06/21 06:31:21;;;;;;;12.75;3.95;;;18.30;99.90;;;;;;4955060;29;20297;-78
2022/06/21 06:33:52;;;;;;;6.90;3.50;;;18.30;99.90;;;;;;4954928;28;20600;-78
2022/06/21 06:36:21;;;;;;;12.82;4.28;;;18.40;99.90;;;;;;4955413;29;20175;-78
2022/06/21 06:38:47;;;;;;;7.97;4.28;;;18.30;99.90;;;;;;4954864;28;20179;-79
2022/06/21 06:41:44;;;;;;;5.90;3.58;;;18.10;99.90;;;;;;4954024;28;20229;-79
2022/06/21 06:44:14;;;;;;;16.50;4.00;;;18.30;99.90;;;;;;4954714;29;20186;-80
2022/06/21 06:46:46;;;;;;;10.90;4.00;;;18.20;99.90;;;;;;4955469;28;20167;-82
2022/06/21 06:49:21;;;;;;;8.85;4.25;;;18.50;99.90;;;;;;4954823;28;20261;-86
2022/06/21 06:52:01;;;;;;;9.68;3.78;;;18.60;99.90;;;;;;4954795;28;20717;-79
2022/06/21 06:54:56;;;;;;;22.40;3.80;;;18.60;99.90;;;;;;4969707;28;20257;-83
2022/06/21 06:57:37;;;;;;;11.93;4.00;;;19.00;99.90;;;;;;4954945;29;20222;-80
2022/06/21 07:00:14;;;;;;;7.38;3.60;;;19.30;99.90;;;;;;4954645;28;20221;-80
2022/06/21 07:02:52;;;;;;;7.50;3.10;;;20.20;99.90;;;;;;4969054;28;20170;-80
2022/06/21 07:05:37;;;;;;;7.85;3.63;;;20.20;99.90;;;;;;4954981;28;20158;-81
2022/06/21 07:08:34;;;;;;;8.95;3.50;;;20.10;99.90;;;;;;4969381;28;20292;-81
2022/06/21 07:11:04;;;;;;;6.68;3.78;;;20.20;99.90;;;;;;4961804;28;20249;-78
2022/06/21 07:13:31;;;;;;;10.38;4.20;;;20.40;99.90;;;;;;4954521;29;20172;-77
2022/06/21 07:16:03;;;;;;;24.70;4.22;;;20.10;99.90;;;;;;4954603;29;20225;-77
2022/06/21 07:18:39;;;;;;;14.10;4.40;;;20.40;99.90;;;;;;4954696;28;20259;-79
2022/06/21 07:21:06;;;;;;;12.43;4.20;;;20.50;99.90;;;;;;4954581;29;20620;-77
2022/06/21 07:23:31;;;;;;;8.90;4.05;;;20.20;99.90;;;;;;4957561;28;20174;-85
2022/06/21 07:26:17;;;;;;;7.65;3.50;;;20.10;99.90;;;;;;4956472;29;20171;-79
2022/06/21 07:28:49;;;;;;;14.02;4.75;;;20.00;99.90;;;;;;4956006;29;20227;-83
2022/06/21 07:31:24;;;;;;;12.57;4.68;;;20.00;99.90;;;;;;4959258;29;20187;-78
2022/06/21 07:34:05;;;;;;;10.35;4.47;;;19.50;99.90;;;;;;4972041;28;20225;-79
2022/06/21 07:36:38;;;;;;;13.13;4.93;;;19.20;99.90;;;;;;4959634;28;20206;-79
2022/06/21 07:39:15;;;;;;;17.17;5.07;;;19.30;99.90;;;;;;4960737;29;20206;-79
2022/06/21 07:41:47;;;;;;;16.52;4.72;;;19.30;99.90;;;;;;4955844;29;20526;-78
2022/06/21 07:44:20;;;;;;;14.40;4.68;;;19.40;99.90;;;;;;4954752;29;20173;-78
2022/06/21 07:46:52;;;;;;;11.45;5.95;;;19.40;99.90;;;;;;4958617;28;20179;-78
2022/06/21 07:49:37;;;;;;;20.95;5.38;;;19.30;99.90;;;;;;4954940;29;20195;-84
2022/06/21 07:52:11;;;;;;;14.07;5.20;;;19.30;99.90;;;;;;4954503;29;20170;-78
2022/06/21 07:54:55;;;;;;;12.55;5.03;;;19.40;99.90;;;;;;4954194;28;20165;-88
2022/06/21 07:57:27;;;;;;;23.20;5.25;;;19.30;99.90;;;;;;4954644;28;20186;-79
2022/06/21 08:00:13;;;;;;;9.02;4.38;;;19.50;99.90;;;;;;4957993;28;20217;-80
2022/06/21 08:08:44;;;;;;;23.60;4.75;;;19.50;99.90;;;;;;4957759;29;21028;-79
2022/06/21 08:11:15;;;;;;;9.88;5.22;;;19.60;99.90;;;;;;4957379;28;20190;-91
2022/06/21 08:13:42;;;;;;;21.13;4.97;;;19.80;99.90;;;;;;4957547;29;20249;-78
2022/06/21 08:16:10;;;;;;;8.18;4.28;;;20.10;99.90;;;;;;4955930;28;20181;-79
2022/06/21 08:18:46;;;;;;;9.68;5.32;;;20.40;99.90;;;;;;4957544;28;20198;-79
2022/06/21 08:21:23;;;;;;;10.90;4.95;;;20.40;99.90;;;;;;4956293;28;20245;-81
2022/06/21 08:23:57;;;;;;;17.98;4.88;;;20.20;99.90;;;;;;4957639;28;20169;-80
2022/06/21 08:26:25;;;;;;;8.25;4.35;;;20.10;99.90;;;;;;4972458;28;20182;-83
2022/06/21 08:29:00;;;;;;;10.43;4.43;;;20.00;99.90;;;;;;4973424;28;20202;-83
2022/06/21 08:31:34;;;;;;;10.68;5.18;;;19.80;99.90;;;;;;4956993;29;20189;-83
2022/06/21 08:34:25;;;;;;;9.60;4.03;;;20.30;99.90;;;;;;4957225;28;20266;-82
2022/06/21 08:36:56;;;;;;;6.18;4.47;;;20.60;99.90;;;;;;4956860;28;20237;-83
2022/06/21 08:39:53;;;;;;;18.10;5.13;;;20.60;99.90;;;;;;4972076;28;20298;-82
2022/06/21 08:42:49;;;;;;;8.55;4.78;;;20.60;99.90;;;;;;4959131;28;20198;-82
2022/06/21 08:45:56;;;;;;;12.15;4.53;;;20.50;99.90;;;;;;4956928;28;20198;-91
2022/06/21 08:48:40;;;;;;;13.10;3.75;;;20.30;99.90;;;;;;4955695;28;20669;-82
2022/06/21 08:51:24;;;;;;;16.02;4.65;;;20.40;99.90;;;;;;4971660;28;20214;-82
2022/06/21 08:54:12;;;;;;;8.68;4.82;;;20.30;99.90;;;;;;4957220;29;20175;-82
2022/06/21 08:56:56;;;;;;;10.43;4.70;;;20.20;99.90;;;;;;4971892;28;20225;-83
2022/06/21 08:59:33;;;;;;;12.15;4.68;;;20.40;99.90;;;;;;4962593;28;20159;-83
2022/06/21 09:02:26;;;;;;;10.43;4.63;;;20.40;99.90;;;;;;4985243;28;20186;-84
2022/06/21 09:05:10;;;;;;;14.60;4.70;;;20.30;99.90;;;;;;4979978;28;20190;-84
2022/06/21 09:08:04;;;;;;;15.30;4.95;;;20.00;99.90;;;;;;4974877;28;20217;-83
2022/06/21 09:11:00;;;;;;;10.20;4.43;;;20.10;99.90;;;;;;4958958;29;20294;-81
2022/06/21 09:13:38;;;;;;;7.93;4.68;;;20.10;99.90;;;;;;4971365;28;20170;-83
2022/06/21 09:16:35;;;;;;;15.98;4.55;;;19.90;99.90;;;;;;4956616;29;20609;-86
2022/06/21 09:19:21;;;;;;;86.25;7.32;;;19.90;99.90;;;;;;4964150;28;20214;-82
2022/06/21 09:22:12;;;;;;;16.35;4.30;;;19.90;99.90;;;;;;4955567;28;20315;-95
2022/06/21 09:25:04;;;;;;;19.52;5.15;;;20.00;99.90;;;;;;4956316;29;20218;-83
2022/06/21 09:27:51;;;;;;;13.25;4.45;;;20.00;99.90;;;;;;4955475;28;20198;-83
2022/06/21 09:30:19;;;;;;;52.50;6.13;;;20.00;99.90;;;;;;4956187;28;20630;-81
2022/06/21 09:33:08;;;;;;;13.55;5.03;;;20.40;99.90;;;;;;4956179;28;20166;-84
2022/06/21 09:35:43;;;;;;;19.65;4.93;;;20.50;99.90;;;;;;4955945;29;20185;-92
2022/06/21 09:38:21;;;;;;;4.55;3.45;;;20.60;99.90;;;;;;4972184;28;20194;-81
2022/06/21 09:40:59;;;;;;;21.75;4.40;;;20.50;99.90;;;;;;4956038;29;20174;-81
2022/06/21 09:43:44;;;;;;;22.00;4.50;;;20.70;99.90;;;;;;4955855;29;20170;-82
2022/06/21 09:46:20;;;;;;;20.88;5.20;;;20.90;99.90;;;;;;4955385;28;20197;-82
2022/06/21 09:48:46;;;;;;;14.75;4.97;;;21.00;99.90;;;;;;4955670;29;20244;-80
2022/06/21 09:51:17;;;;;;;10.88;3.88;;;21.10;99.90;;;;;;4954991;29;20167;-81
2022/06/21 09:54:05;;;;;;;7.90;3.92;;;21.10;99.90;;;;;;4955344;29;20305;-81
2022/06/21 09:56:51;;;;;;;13.43;4.88;;;21.00;99.90;;;;;;4955367;29;20222;-81
2022/06/21 09:59:54;;;;;;;11.40;4.22;;;20.80;99.90;;;;;;4955209;28;20183;-81
2022/06/21 10:02:46;;;;;;;8.18;4.47;;;20.90;99.90;;;;;;4970129;28;20229;-81
2022/06/21 10:05:32;;;;;;;9.77;4.50;;;20.80;99.90;;;;;;4955157;28;20170;-81
2022/06/21 10:08:17;;;;;;;12.20;4.20;;;20.70;99.90;;;;;;4955005;28;20193;-80
2022/06/21 10:11:13;;;;;;;11.70;3.80;;;20.60;99.90;;;;;;4969792;28;20210;-80
2022/06/21 10:14:08;;;;;;;7.80;4.05;;;20.60;99.90;;;;;;4954944;29;20174;-81
2022/06/21 10:17:07;;;;;;;10.20;4.00;;;20.80;99.90;;;;;;4969349;28;20246;-81
2022/06/21 10:19:39;;;;;;;5.80;3.40;;;20.50;99.90;;;;;;4954885;28;20170;-80
2022/06/21 10:22:35;;;;;;;10.95;3.80;;;20.70;99.90;;;;;;4954739;29;20618;-81
2022/06/21 10:25:26;;;;;;;9.02;4.22;;;20.70;99.90;;;;;;4954990;28;20195;-79
2022/06/21 10:28:07;;;;;;;6.63;3.67;;;20.70;99.90;;;;;;4954416;29;20277;-81
2022/06/21 10:30:43;;;;;;;6.65;4.25;;;20.80;99.90;;;;;;4954546;29;20210;-80
2022/06/21 10:33:30;;;;;;;9.07;4.18;;;21.00;99.90;;;;;;4954713;28;20170;-80
2022/06/21 10:36:12;;;;;;;13.75;4.07;;;21.00;99.90;;;;;;4954959;28;20635;-80
2022/06/21 10:39:09;;;;;;;10.52;4.63;;;20.80;99.90;;;;;;4969581;28;20206;-80
2022/06/21 10:45:11;;;;;;;33.95;5.10;;;20.90;99.90;;;;;;4954865;29;20243;-80
2022/06/21 10:47:52;;;;;;;9.07;4.22;;;20.90;99.90;;;;;;4969159;28;20214;-81
2022/06/21 10:51:02;;;;;;;8.45;5.10;;;20.90;99.90;;;;;;4954298;29;20217;-79
2022/06/21 10:53:47;;;;;;;15.57;4.82;;;20.70;99.90;;;;;;4971755;28;20188;-82
2022/06/21 11:02:54;;;;;;;9.73;3.63;;;21.00;99.90;;;;;;4973191;28;20177;-82
2022/06/21 11:05:48;;;;;;;14.18;3.88;;;20.70;99.90;;;;;;4973088;28;20180;-83
2022/06/21 11:08:22;;;;;;;13.50;4.20;;;20.50;99.90;;;;;;4972278;28;20209;-87
2022/06/21 11:10:56;;;;;;;13.05;4.03;;;20.60;99.90;;;;;;4972923;28;20217;-87
2022/06/21 11:13:28;;;;;;;8.90;4.00;;;20.60;99.90;;;;;;4971344;28;20162;-87
2022/06/21 11:16:15;;;;;;;11.15;3.63;;;20.60;99.90;;;;;;4971160;28;20209;-83
2022/06/21 11:19:00;;;;;;;9.02;3.35;;;20.60;99.90;;;;;;4957358;28;20197;-84
2022/06/21 11:22:03;;;;;;;8.15;3.17;;;20.50;99.90;;;;;;4970659;28;20182;-84
2022/06/21 11:24:42;;;;;;;24.05;3.90;;;20.80;99.90;;;;;;4971110;28;20174;-83
2022/06/21 11:27:20;;;;;;;95.35;9.77;;;20.50;99.90;;;;;;4972647;28;21138;-89
2022/06/21 11:29:58;;;;;;;13.27;4.03;;;20.50;99.90;;;;;;4972829;28;20226;-88
2022/06/21 11:33:01;;;;;;;11.38;3.75;;;20.20;99.90;;;;;;4973268;28;20294;-89
2022/06/21 11:35:58;;;;;;;16.00;3.92;;;20.40;99.90;;;;;;4991379;28;20169;-89
2022/06/21 11:39:01;;;;;;;6.25;3.67;;;20.60;99.90;;;;;;4997480;28;20237;-86
2022/06/21 11:42:08;;;;;;;15.60;4.30;;;20.40;99.90;;;;;;4993083;28;20268;-84
2022/06/21 11:45:01;;;;;;;7.20;3.92;;;20.20;99.90;;;;;;4975820;28;20194;-86
2022/06/21 11:47:57;;;;;;;5.13;2.95;;;20.40;99.90;;;;;;4975591;28;20257;-84
2022/06/21 11:50:27;;;;;;;5.43;3.45;;;20.70;99.90;;;;;;4975532;28;20311;-85
2022/06/21 11:53:14;;;;;;;8.85;3.67;;;20.60;99.90;;;;;;4974032;28;20579;-89
2022/06/21 11:56:37;;;;;;;23.17;4.95;;;20.30;99.90;;;;;;4973539;28;20571;-85
2022/06/21 11:59:17;;;;;;;10.07;4.47;;;20.50;99.90;;;;;;4976294;28;20224;-87
2022/06/21 12:01:57;;;;;;;19.08;4.78;;;20.60;99.90;;;;;;4975869;28;20217;-85
2022/06/21 12:04:40;;;;;;;8.77;3.80;;;20.40;99.90;;;;;;4975582;28;20570;-85
2022/06/21 12:07:17;;;;;;;36.15;6.05;;;20.50;99.90;;;;;;4975032;28;20186;-84
2022/06/21 12:10:10;;;;;;;13.88;3.97;;;20.40;99.90;;;;;;4974850;28;20257;-87
2022/06/21 12:12:40;;;;;;;34.20;5.05;;;20.30;99.90;;;;;;4974041;28;20179;-94
2022/06/21 12:15:33;;;;;;;43.38;7.88;;;20.10;99.90;;;;;;4958777;29;20189;-83
2022/06/21 12:18:05;;;;;;;8.50;3.50;;;20.10;99.90;;;;;;4972724;28;20233;-82
2022/06/21 12:20:40;;;;;;;23.10;3.80;;;20.20;99.90;;;;;;4958146;28;20538;-85
2022/06/21 12:23:15;;;;;;;38.58;5.28;;;20.40;99.90;;;;;;4956368;28;20273;-81
2022/06/21 12:25:41;;;;;;;15.68;5.28;;;20.50;99.90;;;;;;4957181;29;20212;-81
2022/06/21 12:28:18;;;;;;;7.57;3.65;;;20.40;99.90;;;;;;4957239;28;20210;-82
2022/06/21 12:30:45;;;;;;;6.82;4.05;;;20.50;99.90;;;;;;4957023;28;20220;-81
2022/06/21 12:33:14;;;;;;;74.00;7.63;;;20.50;99.90;;;;;;4959357;28;20170;-81
2022/06/21 12:35:45;;;;;;;13.90;4.15;;;20.60;99.90;;;;;;4957080;28;20173;-81
2022/06/21 12:38:16;;;;;;;12.02;3.75;;;20.60;99.90;;;;;;4971767;28;20599;-82
2022/06/21 12:41:00;;;;;;;10.07;2.97;;;20.50;99.90;;;;;;4973573;28;20623;-88
2022/06/21 12:43:53;;;;;;;10.07;3.33;;;20.60;99.90;;;;;;4957668;28;20167;-80
2022/06/21 12:46:48;;;;;;;5.70;2.90;;;20.40;99.90;;;;;;4956679;29;20163;-81
2022/06/21 12:49:29;;;;;;;7.45;3.22;;;20.20;99.90;;;;;;4972068;28;20233;-84
2022/06/21 12:52:07;;;;;;;9.85;3.22;;;20.20;99.90;;;;;;4956942;28;20174;-80
2022/06/21 12:54:45;;;;;;;10.50;3.78;;;20.40;99.90;;;;;;4962152;28;20170;-82
2022/06/21 12:57:18;;;;;;;11.07;3.67;;;20.10;99.90;;;;;;4956937;29;20226;-92
2022/06/21 12:59:55;;;;;;;5.57;3.35;;;20.30;99.90;;;;;;4957349;29;20225;-88
2022/06/21 13:02:46;;;;;;;20.17;4.20;;;20.60;99.90;;;;;;4972288;28;20536;-87
2022/06/21 13:05:27;;;;;;;27.88;4.93;;;20.50;99.90;;;;;;4957373;28;20182;-88
2022/06/21 13:08:08;;;;;;;9.93;3.88;;;20.90;99.90;;;;;;4972472;28;20218;-87
2022/06/21 13:10:46;;;;;;;9.02;3.45;;;21.20;99.90;;;;;;4972442;28;20213;-87
2022/06/21 13:13:31;;;;;;;11.93;4.35;;;21.40;99.90;;;;;;4957098;29;20181;-92
2022/06/21 13:16:15;;;;;;;22.48;4.55;;;21.50;99.90;;;;;;4955880;29;20175;-85
2022/06/21 13:18:53;;;;;;;4.65;3.22;;;21.10;99.90;;;;;;4971684;28;20213;-85
2022/06/21 13:21:47;;;;;;;10.48;4.13;;;21.40;99.90;;;;;;4975139;28;20662;-84
2022/06/21 13:24:56;;;;;;;21.10;4.95;;;21.70;99.90;;;;;;4973200;28;20265;-85
2022/06/21 13:27:37;;;;;;;10.75;3.97;;;21.70;99.90;;;;;;4974584;28;20292;-84
2022/06/21 13:30:31;;;;;;;11.80;3.40;;;21.20;99.90;;;;;;4972691;28;20218;-85
2022/06/21 13:33:25;;;;;;;17.08;3.95;;;21.30;99.90;;;;;;4974637;28;20178;-81
2022/06/21 13:36:13;;;;;;;12.82;4.10;;;21.20;99.90;;;;;;4972509;28;20181;-81
2022/06/21 13:38:58;;;;;;;65.05;6.05;;;21.50;99.90;;;;;;4957999;29;20273;-86
2022/06/21 13:44:49;;;;;;;129.65;14.73;;;21.80;99.90;;;;;;4972786;28;20216;-83
2022/06/21 13:47:45;;;;;;;25.25;4.72;;;21.80;99.90;;;;;;4958786;28;20210;-84
2022/06/21 13:50:14;;;;;;;12.88;3.17;;;21.70;99.90;;;;;;4954283;28;20213;-83
2022/06/21 13:52:56;;;;;;;6.15;3.15;;;21.70;99.90;;;;;;4970793;28;20185;-84
2022/06/21 13:55:40;;;;;;;14.63;3.40;;;21.60;99.90;;;;;;4957104;28;20161;-83
2022/06/21 13:58:34;;;;;;;5.20;3.30;;;21.60;99.90;;;;;;4971427;28;20217;-81
2022/06/21 14:01:25;;;;;;;5.00;3.10;;;21.90;99.90;;;;;;4958007;28;20171;-83
2022/06/21 14:04:21;;;;;;;14.55;6.47;;;22.30;99.90;;;;;;4955675;28;20254;-82